KLM1617 EHAM-LIML
Flight info
| Callsign | KLM1617 |
|---|---|
| Flight time | 1h 15m |
| Altitude | 33000 |
| Route | LOPIK N852 GESLO DCT LIMGO DCT SUTAL DCT GTQ DCT DEVDI DCT ODINA |
| Aircraft | B738/M-SDE2E3FGHIRWXY/LB1 |
Departure
| Time | 2026-04-28 14:05 |
|---|---|
| Airport | Amsterdam Airport Schiphol (EHAM) |
Arrival
| Time | 2026-04-28 15:21 |
|---|---|
| Airport | Milano Linate Airport (LIML) |
| Time | Latitude | Longitude | Altitude | Speed | Heading |
|---|---|---|---|---|---|
| 2026-04-28 13:36 | 52.30705 | 4.77342 | 13 ft | 0 kts | 1° |
| 2026-04-28 13:55 | 52.30695 | 4.77342 | 13 ft | 5 kts | 2° |
| 2026-04-28 13:56 | 52.30672 | 4.77335 | 13 ft | 2 kts | 30° |
| 2026-04-28 13:56 | 52.30651 | 4.77304 | 13 ft | 4 kts | 56° |
| 2026-04-28 13:56 | 52.30644 | 4.77276 | 13 ft | 0 kts | 91° |
| 2026-04-28 13:56 | 52.30644 | 4.77277 | 13 ft | 0 kts | 91° |
| 2026-04-28 13:57 | 52.30643 | 4.77315 | 13 ft | 8 kts | 92° |
| 2026-04-28 13:58 | 52.30641 | 4.77465 | 13 ft | 16 kts | 89° |
| 2026-04-28 13:58 | 52.30681 | 4.77581 | 13 ft | 9 kts | 19° |
| 2026-04-28 13:58 | 52.30757 | 4.77596 | 13 ft | 16 kts | 4° |
| 2026-04-28 13:58 | 52.30884 | 4.77607 | 13 ft | 17 kts | 3° |
| 2026-04-28 13:59 | 52.30992 | 4.77617 | 13 ft | 13 kts | 3° |
| 2026-04-28 13:59 | 52.31068 | 4.77624 | 13 ft | 9 kts | 3° |
| 2026-04-28 13:59 | 52.31134 | 4.77629 | 13 ft | 11 kts | 2° |
| 2026-04-28 13:59 | 52.31219 | 4.77638 | 13 ft | 13 kts | 3° |
| 2026-04-28 14:00 | 52.31316 | 4.77647 | 13 ft | 15 kts | 3° |
| 2026-04-28 14:00 | 52.31429 | 4.77647 | 13 ft | 17 kts | 346° |
| 2026-04-28 14:00 | 52.31539 | 4.77512 | 13 ft | 23 kts | 311° |
| 2026-04-28 14:00 | 52.31574 | 4.77295 | 13 ft | 15 kts | 267° |
| 2026-04-28 14:01 | 52.31569 | 4.77131 | 13 ft | 17 kts | 267° |
| 2026-04-28 14:01 | 52.31560 | 4.76885 | 13 ft | 25 kts | 266° |
| 2026-04-28 14:01 | 52.31552 | 4.76638 | 13 ft | 19 kts | 266° |
| 2026-04-28 14:01 | 52.31545 | 4.76440 | 13 ft | 20 kts | 266° |
| 2026-04-28 14:02 | 52.31535 | 4.76179 | 13 ft | 25 kts | 267° |
| 2026-04-28 14:02 | 52.31527 | 4.75915 | 13 ft | 21 kts | 266° |
| 2026-04-28 14:02 | 52.31520 | 4.75720 | 13 ft | 14 kts | 266° |
| 2026-04-28 14:02 | 52.31514 | 4.75546 | 13 ft | 21 kts | 267° |
| 2026-04-28 14:03 | 52.31505 | 4.75304 | 13 ft | 19 kts | 265° |
| 2026-04-28 14:03 | 52.31498 | 4.75124 | 13 ft | 13 kts | 266° |
| 2026-04-28 14:03 | 52.31491 | 4.74945 | 13 ft | 21 kts | 266° |
| 2026-04-28 14:03 | 52.31490 | 4.74745 | 13 ft | 14 kts | 285° |
| 2026-04-28 14:04 | 52.31541 | 4.74670 | 13 ft | 7 kts | 348° |
| 2026-04-28 14:04 | 52.31602 | 4.74661 | 13 ft | 13 kts | 358° |
| 2026-04-28 14:04 | 52.31663 | 4.74737 | 13 ft | 9 kts | 82° |
| 2026-04-28 14:04 | 52.31664 | 4.74745 | 13 ft | 0 kts | 85° |
| 2026-04-28 14:05 | 52.31666 | 4.74785 | 13 ft | 13 kts | 85° |
| 2026-04-28 14:05 | 52.31696 | 4.75406 | 13 ft | 97 kts | 86° |
| 2026-04-28 14:05 | 52.31755 | 4.76914 | 107 ft | 160 kts | 82° |
| 2026-04-28 14:05 | 52.31845 | 4.78789 | 995 ft | 164 kts | 83° |
| 2026-04-28 14:06 | 52.31791 | 4.80606 | 2186 ft | 160 kts | 103° |
| 2026-04-28 14:06 | 52.31115 | 4.82094 | 3017 ft | 178 kts | 136° |
| 2026-04-28 14:06 | 52.29894 | 4.83021 | 3492 ft | 211 kts | 158° |
| 2026-04-28 14:06 | 52.28380 | 4.83642 | 4008 ft | 232 kts | 160° |
| 2026-04-28 14:07 | 52.26839 | 4.84318 | 5068 ft | 228 kts | 157° |
| 2026-04-28 14:07 | 52.25388 | 4.85413 | 6001 ft | 229 kts | 144° |
| 2026-04-28 14:07 | 52.24050 | 4.86948 | 6653 ft | 245 kts | 139° |
| 2026-04-28 14:07 | 52.22666 | 4.88718 | 7307 ft | 260 kts | 138° |
| 2026-04-28 14:08 | 52.21241 | 4.90584 | 8163 ft | 267 kts | 139° |
| 2026-04-28 14:08 | 52.19772 | 4.92499 | 9056 ft | 272 kts | 139° |
| 2026-04-28 14:08 | 52.18302 | 4.94409 | 10056 ft | 272 kts | 139° |
| 2026-04-28 14:08 | 52.16813 | 4.96340 | 10901 ft | 278 kts | 140° |
| 2026-04-28 14:09 | 52.15259 | 4.98349 | 11534 ft | 293 kts | 140° |
| 2026-04-28 14:09 | 52.13610 | 5.00478 | 11942 ft | 314 kts | 140° |
| 2026-04-28 14:09 | 52.11845 | 5.02750 | 12332 ft | 334 kts | 141° |
| 2026-04-28 14:09 | 52.09861 | 5.04816 | 13000 ft | 344 kts | 150° |
| 2026-04-28 14:10 | 52.07657 | 5.06375 | 13789 ft | 350 kts | 159° |
| 2026-04-28 14:10 | 52.05320 | 5.07566 | 14586 ft | 355 kts | 163° |
| 2026-04-28 14:10 | 52.02913 | 5.08604 | 15365 ft | 359 kts | 164° |
| 2026-04-28 14:10 | 52.00493 | 5.09641 | 16129 ft | 363 kts | 164° |
| 2026-04-28 14:11 | 51.98038 | 5.10715 | 16885 ft | 367 kts | 163° |
| 2026-04-28 14:11 | 51.95567 | 5.11807 | 17597 ft | 371 kts | 164° |
| 2026-04-28 14:11 | 51.93069 | 5.12913 | 18283 ft | 375 kts | 164° |
| 2026-04-28 14:11 | 51.90507 | 5.14051 | 18943 ft | 380 kts | 163° |
| 2026-04-28 14:12 | 51.87950 | 5.15185 | 19600 ft | 384 kts | 163° |
| 2026-04-28 14:12 | 51.85372 | 5.16327 | 20238 ft | 388 kts | 163° |
| 2026-04-28 14:12 | 51.82750 | 5.17487 | 20810 ft | 393 kts | 164° |
| 2026-04-28 14:12 | 51.80112 | 5.18652 | 21459 ft | 395 kts | 164° |
| 2026-04-28 14:13 | 51.77458 | 5.19824 | 22070 ft | 398 kts | 165° |
| 2026-04-28 14:13 | 51.74780 | 5.21004 | 22633 ft | 401 kts | 164° |
| 2026-04-28 14:13 | 51.72083 | 5.22192 | 23211 ft | 404 kts | 164° |
| 2026-04-28 14:13 | 51.69369 | 5.23393 | 23737 ft | 407 kts | 164° |
| 2026-04-28 14:14 | 51.66620 | 5.24619 | 24243 ft | 411 kts | 165° |
| 2026-04-28 14:14 | 51.63846 | 5.25848 | 24697 ft | 415 kts | 165° |
| 2026-04-28 14:14 | 51.61061 | 5.27075 | 25168 ft | 419 kts | 165° |
| 2026-04-28 14:14 | 51.58232 | 5.28317 | 25615 ft | 422 kts | 165° |
| 2026-04-28 14:15 | 51.55397 | 5.29558 | 26070 ft | 425 kts | 165° |
| 2026-04-28 14:15 | 51.52495 | 5.30826 | 26474 ft | 429 kts | 165° |
| 2026-04-28 14:15 | 51.49605 | 5.32086 | 26897 ft | 433 kts | 165° |
| 2026-04-28 14:15 | 51.46680 | 5.33360 | 27238 ft | 437 kts | 165° |
| 2026-04-28 14:16 | 51.43744 | 5.34637 | 27623 ft | 440 kts | 165° |
| 2026-04-28 14:16 | 51.40780 | 5.35925 | 27999 ft | 443 kts | 165° |
| 2026-04-28 14:16 | 51.37810 | 5.37236 | 28396 ft | 446 kts | 165° |
| 2026-04-28 14:16 | 51.34808 | 5.38539 | 28741 ft | 449 kts | 165° |
| 2026-04-28 14:17 | 51.31790 | 5.39847 | 29082 ft | 452 kts | 165° |
| 2026-04-28 14:17 | 51.28753 | 5.41164 | 29506 ft | 452 kts | 165° |
| 2026-04-28 14:17 | 51.25721 | 5.42461 | 29980 ft | 451 kts | 166° |
| 2026-04-28 14:17 | 51.22675 | 5.43516 | 30434 ft | 450 kts | 169° |
| 2026-04-28 14:18 | 51.19575 | 5.44497 | 30968 ft | 447 kts | 169° |
| 2026-04-28 14:18 | 51.16542 | 5.45526 | 31483 ft | 445 kts | 166° |
| 2026-04-28 14:18 | 51.13553 | 5.46780 | 31917 ft | 444 kts | 165° |
| 2026-04-28 14:18 | 51.10593 | 5.48126 | 32299 ft | 445 kts | 165° |
| 2026-04-28 14:19 | 51.07613 | 5.49473 | 32627 ft | 446 kts | 165° |
| 2026-04-28 14:19 | 51.04632 | 5.50805 | 32930 ft | 447 kts | 165° |
| 2026-04-28 14:19 | 50.98630 | 5.53456 | 32999 ft | 447 kts | 165° |
| 2026-04-28 14:20 | 50.92676 | 5.56080 | 32999 ft | 445 kts | 165° |
| 2026-04-28 14:20 | 50.86691 | 5.58682 | 33004 ft | 446 kts | 165° |
| 2026-04-28 14:21 | 50.80718 | 5.61261 | 33018 ft | 445 kts | 165° |
| 2026-04-28 14:21 | 50.74760 | 5.63825 | 33092 ft | 440 kts | 165° |
| 2026-04-28 14:22 | 50.68819 | 5.66376 | 33114 ft | 445 kts | 166° |
| 2026-04-28 14:22 | 50.62867 | 5.69033 | 33129 ft | 445 kts | 165° |
| 2026-04-28 14:23 | 50.56962 | 5.71813 | 33154 ft | 444 kts | 163° |
| 2026-04-28 14:23 | 50.51159 | 5.75205 | 33164 ft | 445 kts | 161° |
| 2026-04-28 14:24 | 50.45387 | 5.78666 | 33162 ft | 445 kts | 161° |
| 2026-04-28 14:24 | 50.39559 | 5.82102 | 33170 ft | 445 kts | 162° |
| 2026-04-28 14:25 | 50.33776 | 5.85519 | 33171 ft | 445 kts | 162° |
| 2026-04-28 14:25 | 50.27994 | 5.88898 | 33171 ft | 445 kts | 162° |
| 2026-04-28 14:26 | 50.22199 | 5.92258 | 33167 ft | 445 kts | 162° |
| 2026-04-28 14:26 | 50.16407 | 5.95601 | 33168 ft | 445 kts | 163° |
| 2026-04-28 14:27 | 50.10608 | 5.98940 | 33169 ft | 444 kts | 162° |
| 2026-04-28 14:27 | 50.04828 | 6.02378 | 33158 ft | 447 kts | 161° |
| 2026-04-28 14:28 | 49.99072 | 6.06035 | 33154 ft | 447 kts | 161° |
| 2026-04-28 14:28 | 49.93634 | 6.09469 | 33159 ft | 445 kts | 161° |
| 2026-04-28 14:29 | 49.87778 | 6.13184 | 33131 ft | 450 kts | 161° |
| 2026-04-28 14:29 | 49.81991 | 6.16817 | 33119 ft | 449 kts | 162° |
| 2026-04-28 14:30 | 49.76218 | 6.20420 | 33117 ft | 448 kts | 162° |
| 2026-04-28 14:30 | 49.70445 | 6.24011 | 33113 ft | 448 kts | 162° |
| 2026-04-28 14:31 | 49.64676 | 6.27593 | 33113 ft | 447 kts | 162° |
| 2026-04-28 14:31 | 49.58902 | 6.31308 | 33113 ft | 448 kts | 161° |
| 2026-04-28 14:32 | 49.53206 | 6.35000 | 33121 ft | 448 kts | 160° |
| 2026-04-28 14:32 | 49.47429 | 6.38728 | 33127 ft | 448 kts | 160° |
| 2026-04-28 14:33 | 49.41858 | 6.42466 | 33129 ft | 448 kts | 159° |
| 2026-04-28 14:33 | 49.36163 | 6.46330 | 33140 ft | 447 kts | 158° |
| 2026-04-28 14:34 | 49.27658 | 6.52081 | 33149 ft | 447 kts | 158° |
| 2026-04-28 14:35 | 49.21949 | 6.55966 | 33148 ft | 447 kts | 158° |
| 2026-04-28 14:35 | 49.16282 | 6.59785 | 33109 ft | 448 kts | 161° |
| 2026-04-28 14:36 | 49.10549 | 6.63625 | 33081 ft | 450 kts | 162° |
| 2026-04-28 14:36 | 49.04847 | 6.67433 | 33067 ft | 449 kts | 162° |
| 2026-04-28 14:37 | 48.99130 | 6.71245 | 33065 ft | 449 kts | 162° |
| 2026-04-28 14:37 | 48.93438 | 6.75119 | 33063 ft | 449 kts | 161° |
| 2026-04-28 14:38 | 48.87716 | 6.79017 | 33060 ft | 448 kts | 162° |
| 2026-04-28 14:38 | 48.82024 | 6.82882 | 33063 ft | 448 kts | 162° |
| 2026-04-28 14:39 | 48.76341 | 6.86732 | 33061 ft | 448 kts | 162° |
| 2026-04-28 14:39 | 48.70669 | 6.90563 | 33056 ft | 446 kts | 162° |
| 2026-04-28 14:40 | 48.65010 | 6.94395 | 33056 ft | 447 kts | 162° |
| 2026-04-28 14:40 | 48.59346 | 6.98235 | 33054 ft | 447 kts | 162° |
| 2026-04-28 14:41 | 48.53690 | 7.02053 | 33054 ft | 445 kts | 162° |
| 2026-04-28 14:41 | 48.48008 | 7.05873 | 33047 ft | 447 kts | 163° |
| 2026-04-28 14:42 | 48.42329 | 7.09678 | 33045 ft | 450 kts | 163° |
| 2026-04-28 14:42 | 48.36615 | 7.13497 | 33046 ft | 450 kts | 163° |
| 2026-04-28 14:43 | 48.30857 | 7.17335 | 33045 ft | 450 kts | 163° |
| 2026-04-28 14:43 | 48.25146 | 7.21132 | 33044 ft | 450 kts | 163° |
| 2026-04-28 14:44 | 48.19414 | 7.24934 | 33047 ft | 450 kts | 163° |
| 2026-04-28 14:44 | 48.13682 | 7.28726 | 33048 ft | 452 kts | 163° |
| 2026-04-28 14:45 | 48.07914 | 7.32533 | 33050 ft | 456 kts | 163° |
| 2026-04-28 14:45 | 48.02127 | 7.36353 | 33051 ft | 455 kts | 163° |
| 2026-04-28 14:46 | 47.96352 | 7.40162 | 33052 ft | 455 kts | 163° |
| 2026-04-28 14:46 | 47.90531 | 7.43973 | 33052 ft | 454 kts | 163° |
| 2026-04-28 14:47 | 47.84754 | 7.47741 | 33052 ft | 455 kts | 163° |
| 2026-04-28 14:47 | 47.79946 | 7.50869 | 33054 ft | 453 kts | 162° |
| 2026-04-28 14:48 | 47.74166 | 7.54627 | 33053 ft | 449 kts | 162° |
| 2026-04-28 14:48 | 47.68497 | 7.58560 | 33053 ft | 451 kts | 161° |
| 2026-04-28 14:49 | 47.62809 | 7.62572 | 33053 ft | 457 kts | 161° |
| 2026-04-28 14:49 | 47.57062 | 7.66606 | 33053 ft | 459 kts | 161° |
| 2026-04-28 14:50 | 47.51290 | 7.70643 | 33053 ft | 457 kts | 161° |
| 2026-04-28 14:50 | 47.45550 | 7.74645 | 33053 ft | 457 kts | 161° |
| 2026-04-28 14:51 | 47.39814 | 7.78655 | 33053 ft | 458 kts | 161° |
| 2026-04-28 14:51 | 47.34021 | 7.82706 | 33053 ft | 458 kts | 161° |
| 2026-04-28 14:52 | 47.28271 | 7.86708 | 33053 ft | 457 kts | 161° |
| 2026-04-28 14:52 | 47.22516 | 7.90698 | 33053 ft | 458 kts | 161° |
| 2026-04-28 14:53 | 47.16777 | 7.94665 | 33054 ft | 457 kts | 161° |
| 2026-04-28 14:53 | 47.11028 | 7.98629 | 33053 ft | 457 kts | 161° |
| 2026-04-28 14:54 | 47.05279 | 8.02582 | 33053 ft | 457 kts | 161° |
| 2026-04-28 14:54 | 46.99531 | 8.06525 | 33054 ft | 457 kts | 161° |
| 2026-04-28 14:55 | 46.93745 | 8.10485 | 33054 ft | 457 kts | 161° |
| 2026-04-28 14:55 | 46.87995 | 8.14410 | 33053 ft | 457 kts | 161° |
| 2026-04-28 14:56 | 46.82241 | 8.18328 | 33051 ft | 456 kts | 161° |
| 2026-04-28 14:56 | 46.76490 | 8.22236 | 33052 ft | 456 kts | 161° |
| 2026-04-28 14:56 | 46.73624 | 8.24180 | 32849 ft | 454 kts | 161° |
| 2026-04-28 14:57 | 46.70771 | 8.26113 | 32224 ft | 451 kts | 162° |
| 2026-04-28 14:57 | 46.68856 | 8.27409 | 31832 ft | 450 kts | 162° |
| 2026-04-28 14:57 | 46.65075 | 8.29965 | 31125 ft | 445 kts | 162° |
| 2026-04-28 14:57 | 46.62249 | 8.31873 | 30604 ft | 442 kts | 162° |
| 2026-04-28 14:58 | 46.59468 | 8.33748 | 30097 ft | 438 kts | 162° |
| 2026-04-28 14:58 | 46.56709 | 8.35606 | 29602 ft | 435 kts | 162° |
| 2026-04-28 14:58 | 46.53981 | 8.37442 | 29111 ft | 432 kts | 161° |
| 2026-04-28 14:58 | 46.51273 | 8.39262 | 28625 ft | 428 kts | 161° |
| 2026-04-28 14:59 | 46.48576 | 8.41072 | 28142 ft | 424 kts | 161° |
| 2026-04-28 14:59 | 46.45923 | 8.42852 | 27662 ft | 421 kts | 161° |
| 2026-04-28 14:59 | 46.43275 | 8.44626 | 27185 ft | 417 kts | 161° |
| 2026-04-28 14:59 | 46.40636 | 8.46392 | 26709 ft | 414 kts | 161° |
| 2026-04-28 15:00 | 46.38063 | 8.48125 | 26241 ft | 410 kts | 161° |
| 2026-04-28 15:00 | 46.35481 | 8.49858 | 25770 ft | 407 kts | 160° |
| 2026-04-28 15:00 | 46.32898 | 8.51585 | 25299 ft | 404 kts | 160° |
| 2026-04-28 15:00 | 46.30361 | 8.53277 | 24834 ft | 400 kts | 160° |
| 2026-04-28 15:01 | 46.27842 | 8.54953 | 24372 ft | 397 kts | 160° |
| 2026-04-28 15:01 | 46.25373 | 8.56592 | 23918 ft | 394 kts | 160° |
| 2026-04-28 15:01 | 46.22875 | 8.58249 | 23458 ft | 391 kts | 159° |
| 2026-04-28 15:01 | 46.20411 | 8.59880 | 22990 ft | 389 kts | 158° |
| 2026-04-28 15:02 | 46.17936 | 8.61518 | 22520 ft | 388 kts | 158° |
| 2026-04-28 15:02 | 46.15507 | 8.63124 | 22077 ft | 387 kts | 159° |
| 2026-04-28 15:02 | 46.13045 | 8.64764 | 21633 ft | 384 kts | 157° |
| 2026-04-28 15:02 | 46.10748 | 8.66626 | 21199 ft | 384 kts | 150° |
| 2026-04-28 15:03 | 46.08574 | 8.68890 | 20757 ft | 383 kts | 144° |
| 2026-04-28 15:03 | 46.06557 | 8.71400 | 20319 ft | 381 kts | 141° |
| 2026-04-28 15:03 | 46.04628 | 8.73958 | 19887 ft | 378 kts | 140° |
| 2026-04-28 15:03 | 46.02695 | 8.76511 | 19455 ft | 375 kts | 140° |
| 2026-04-28 15:04 | 46.00782 | 8.79020 | 19027 ft | 372 kts | 140° |
| 2026-04-28 15:04 | 45.98868 | 8.81518 | 18601 ft | 369 kts | 140° |
| 2026-04-28 15:04 | 45.96946 | 8.84015 | 18173 ft | 367 kts | 140° |
| 2026-04-28 15:04 | 45.95063 | 8.86456 | 17750 ft | 364 kts | 140° |
| 2026-04-28 15:05 | 45.93170 | 8.88904 | 17324 ft | 361 kts | 140° |
| 2026-04-28 15:05 | 45.91304 | 8.91313 | 16906 ft | 359 kts | 140° |
| 2026-04-28 15:05 | 45.89484 | 8.93661 | 16623 ft | 352 kts | 140° |
| 2026-04-28 15:05 | 45.87674 | 8.95993 | 16453 ft | 343 kts | 140° |
| 2026-04-28 15:06 | 45.86080 | 8.98046 | 16008 ft | 344 kts | 141° |
| 2026-04-28 15:06 | 45.84284 | 9.00360 | 15485 ft | 346 kts | 141° |
| 2026-04-28 15:06 | 45.82505 | 9.02648 | 15095 ft | 344 kts | 140° |
| 2026-04-28 15:06 | 45.80740 | 9.04936 | 14717 ft | 341 kts | 140° |
| 2026-04-28 15:07 | 45.78980 | 9.07206 | 14335 ft | 339 kts | 140° |
| 2026-04-28 15:07 | 45.77234 | 9.09450 | 13964 ft | 336 kts | 140° |
| 2026-04-28 15:07 | 45.75485 | 9.11691 | 13581 ft | 334 kts | 140° |
| 2026-04-28 15:07 | 45.73764 | 9.13896 | 13204 ft | 331 kts | 140° |
| 2026-04-28 15:08 | 45.72044 | 9.16091 | 12814 ft | 330 kts | 140° |
| 2026-04-28 15:08 | 45.70508 | 9.18051 | 12448 ft | 329 kts | 140° |
| 2026-04-28 15:08 | 45.68808 | 9.20215 | 12072 ft | 327 kts | 140° |
| 2026-04-28 15:08 | 45.67116 | 9.22367 | 11732 ft | 324 kts | 140° |
| 2026-04-28 15:09 | 45.65423 | 9.24521 | 11355 ft | 322 kts | 140° |
| 2026-04-28 15:09 | 45.63763 | 9.26632 | 10998 ft | 320 kts | 140° |
| 2026-04-28 15:09 | 45.62105 | 9.28739 | 10634 ft | 318 kts | 140° |
| 2026-04-28 15:09 | 45.60996 | 9.30147 | 10398 ft | 316 kts | 140° |
| 2026-04-28 15:10 | 45.58820 | 9.32909 | 9971 ft | 310 kts | 140° |
| 2026-04-28 15:10 | 45.57290 | 9.34852 | 9855 ft | 294 kts | 140° |
| 2026-04-28 15:10 | 45.55810 | 9.36731 | 9723 ft | 280 kts | 140° |
| 2026-04-28 15:10 | 45.54381 | 9.38541 | 9430 ft | 272 kts | 140° |
| 2026-04-28 15:11 | 45.52879 | 9.40133 | 8991 ft | 269 kts | 154° |
| 2026-04-28 15:11 | 45.51132 | 9.41008 | 8573 ft | 265 kts | 168° |
| 2026-04-28 15:11 | 45.49317 | 9.41428 | 8130 ft | 264 kts | 173° |
| 2026-04-28 15:11 | 45.47474 | 9.41662 | 7696 ft | 262 kts | 176° |
| 2026-04-28 15:12 | 45.45663 | 9.41833 | 7242 ft | 261 kts | 176° |
| 2026-04-28 15:12 | 45.43853 | 9.42009 | 6805 ft | 260 kts | 175° |
| 2026-04-28 15:12 | 45.42055 | 9.42189 | 6348 ft | 259 kts | 175° |
| 2026-04-28 15:12 | 45.40264 | 9.42372 | 5911 ft | 258 kts | 175° |
| 2026-04-28 15:13 | 45.38487 | 9.42558 | 5453 ft | 257 kts | 175° |
| 2026-04-28 15:13 | 45.36706 | 9.42746 | 5008 ft | 256 kts | 175° |
| 2026-04-28 15:13 | 45.34942 | 9.42933 | 4562 ft | 255 kts | 175° |
| 2026-04-28 15:13 | 45.33176 | 9.43121 | 4169 ft | 257 kts | 174° |
| 2026-04-28 15:14 | 45.31396 | 9.43311 | 3872 ft | 255 kts | 174° |
| 2026-04-28 15:14 | 45.29635 | 9.43499 | 3556 ft | 254 kts | 174° |
| 2026-04-28 15:14 | 45.27884 | 9.43685 | 3318 ft | 250 kts | 174° |
| 2026-04-28 15:14 | 45.26194 | 9.43588 | 3201 ft | 241 kts | 195° |
| 2026-04-28 15:15 | 45.24852 | 9.42252 | 3107 ft | 233 kts | 233° |
| 2026-04-28 15:15 | 45.24404 | 9.40911 | 3073 ft | 225 kts | 251° |
| 2026-04-28 15:15 | 45.24054 | 9.38082 | 2990 ft | 212 kts | 262° |
| 2026-04-28 15:15 | 45.23897 | 9.36057 | 2995 ft | 200 kts | 263° |
| 2026-04-28 15:16 | 45.23966 | 9.34120 | 2977 ft | 195 kts | 280° |
| 2026-04-28 15:16 | 45.24493 | 9.32387 | 2960 ft | 191 kts | 306° |
| 2026-04-28 15:16 | 45.25434 | 9.31132 | 2969 ft | 185 kts | 327° |
| 2026-04-28 15:16 | 45.26572 | 9.30346 | 3011 ft | 179 kts | 341° |
| 2026-04-28 15:17 | 45.27756 | 9.29912 | 2998 ft | 175 kts | 350° |
| 2026-04-28 15:17 | 45.28951 | 9.29605 | 2988 ft | 172 kts | 350° |
| 2026-04-28 15:17 | 45.30126 | 9.29338 | 2911 ft | 170 kts | 353° |
| 2026-04-28 15:17 | 45.31272 | 9.29158 | 2720 ft | 162 kts | 356° |
| 2026-04-28 15:18 | 45.32373 | 9.29022 | 2496 ft | 156 kts | 356° |
| 2026-04-28 15:18 | 45.33436 | 9.28901 | 2315 ft | 151 kts | 357° |
| 2026-04-28 15:18 | 45.34484 | 9.28786 | 2098 ft | 148 kts | 358° |
| 2026-04-28 15:18 | 45.35503 | 9.28676 | 1901 ft | 147 kts | 357° |
| 2026-04-28 15:19 | 45.36524 | 9.28565 | 1708 ft | 147 kts | 358° |
| 2026-04-28 15:19 | 45.37546 | 9.28456 | 1511 ft | 148 kts | 357° |
| 2026-04-28 15:19 | 45.38569 | 9.28346 | 1317 ft | 150 kts | 356° |
| 2026-04-28 15:19 | 45.39616 | 9.28233 | 1117 ft | 150 kts | 355° |
| 2026-04-28 15:20 | 45.40655 | 9.28121 | 915 ft | 148 kts | 355° |
| 2026-04-28 15:20 | 45.41665 | 9.28013 | 721 ft | 146 kts | 354° |
| 2026-04-28 15:20 | 45.42678 | 9.27903 | 534 ft | 145 kts | 354° |
| 2026-04-28 15:20 | 45.43677 | 9.27795 | 382 ft | 144 kts | 354° |
| 2026-04-28 15:21 | 45.44571 | 9.27701 | 361 ft | 96 kts | 357° |
| 2026-04-28 15:21 | 45.44943 | 9.27661 | 361 ft | 20 kts | 354° |
| 2026-04-28 15:21 | 45.45053 | 9.27647 | 361 ft | 21 kts | 355° |
| 2026-04-28 15:21 | 45.45243 | 9.27641 | 361 ft | 33 kts | 7° |
| 2026-04-28 15:22 | 45.45430 | 9.27757 | 361 ft | 22 kts | 40° |
| 2026-04-28 15:22 | 45.45556 | 9.27812 | 361 ft | 17 kts | 1° |
| 2026-04-28 15:22 | 45.45652 | 9.27814 | 361 ft | 11 kts | 1° |
| 2026-04-28 15:22 | 45.45713 | 9.27815 | 361 ft | 8 kts | 1° |
| 2026-04-28 15:23 | 45.45762 | 9.27816 | 361 ft | 7 kts | 0° |
| 2026-04-28 15:23 | 45.45789 | 9.27816 | 361 ft | 3 kts | 0° |
| 2026-04-28 15:23 | 45.45790 | 9.27816 | 361 ft | 0 kts | 0° |
| 2026-04-28 15:23 | 45.45796 | 9.27817 | 361 ft | 4 kts | 0° |
| 2026-04-28 15:24 | 45.45850 | 9.27818 | 361 ft | 10 kts | 7° |
| 2026-04-28 15:24 | 45.45908 | 9.27842 | 361 ft | 10 kts | 14° |
| 2026-04-28 15:24 | 45.45972 | 9.27847 | 361 ft | 0 kts | 359° |